sensor_id;sensor_type;location;lat;lon;timestamp;P1;durP1;ratioP1;P2;durP2;ratioP2
24147;SDS011;12309;51.450;-2.624;2023-05-10T00:00:22;37.00;;;15.87;;
24147;SDS011;12309;51.450;-2.624;2023-05-10T00:02:48;41.90;;;16.93;;
24147;SDS011;12309;51.450;-2.624;2023-05-10T00:05:14;32.93;;;16.07;;
24147;SDS011;12309;51.450;-2.624;2023-05-10T00:07:40;34.83;;;15.80;;
24147;SDS011;12309;51.450;-2.624;2023-05-10T00:10:09;36.63;;;14.97;;
24147;SDS011;12309;51.450;-2.624;2023-05-10T00:12:36;42.37;;;16.53;;
24147;SDS011;12309;51.450;-2.624;2023-05-10T00:15:02;39.50;;;17.17;;
24147;SDS011;12309;51.450;-2.624;2023-05-10T00:17:28;40.67;;;17.20;;
24147;SDS011;12309;51.450;-2.624;2023-05-10T00:19:53;37.03;;;16.30;;
24147;SDS011;12309;51.450;-2.624;2023-05-10T00:22:19;39.33;;;18.07;;
24147;SDS011;12309;51.450;-2.624;2023-05-10T00:24:45;40.13;;;18.13;;
24147;SDS011;12309;51.450;-2.624;2023-05-10T00:27:11;44.87;;;17.07;;
24147;SDS011;12309;51.450;-2.624;2023-05-10T00:29:37;41.90;;;18.30;;
24147;SDS011;12309;51.450;-2.624;2023-05-10T00:32:02;51.03;;;18.10;;
24147;SDS011;12309;51.450;-2.624;2023-05-10T00:34:28;41.17;;;17.47;;
24147;SDS011;12309;51.450;-2.624;2023-05-10T00:36:54;43.33;;;18.50;;
24147;SDS011;12309;51.450;-2.624;2023-05-10T00:39:19;49.00;;;18.40;;
24147;SDS011;12309;51.450;-2.624;2023-05-10T00:41:45;42.50;;;18.80;;
24147;SDS011;12309;51.450;-2.624;2023-05-10T00:44:11;39.53;;;16.10;;
24147;SDS011;12309;51.450;-2.624;2023-05-10T00:46:36;37.87;;;17.80;;
24147;SDS011;12309;51.450;-2.624;2023-05-10T00:49:02;37.63;;;16.60;;
24147;SDS011;12309;51.450;-2.624;2023-05-10T00:51:28;43.17;;;17.40;;
24147;SDS011;12309;51.450;-2.624;2023-05-10T00:53:53;32.77;;;15.67;;
24147;SDS011;12309;51.450;-2.624;2023-05-10T00:56:20;33.07;;;15.07;;
24147;SDS011;12309;51.450;-2.624;2023-05-10T00:58:48;33.93;;;15.73;;
24147;SDS011;12309;51.450;-2.624;2023-05-10T01:01:14;37.50;;;16.67;;
24147;SDS011;12309;51.450;-2.624;2023-05-10T01:03:39;35.70;;;16.50;;
24147;SDS011;12309;51.450;-2.624;2023-05-10T01:06:05;32.07;;;17.30;;
24147;SDS011;12309;51.450;-2.624;2023-05-10T01:08:31;38.07;;;17.37;;
24147;SDS011;12309;51.450;-2.624;2023-05-10T01:10:57;35.90;;;17.73;;
24147;SDS011;12309;51.450;-2.624;2023-05-10T01:13:31;36.63;;;18.43;;
24147;SDS011;12309;51.450;-2.624;2023-05-10T01:16:01;39.20;;;18.10;;
24147;SDS011;12309;51.450;-2.624;2023-05-10T01:18:28;37.27;;;18.00;;
24147;SDS011;12309;51.450;-2.624;2023-05-10T01:32:43;38.37;;;17.93;;
24147;SDS011;12309;51.450;-2.624;2023-05-10T01:35:43;35.27;;;19.43;;
24147;SDS011;12309;51.450;-2.624;2023-05-10T01:38:41;39.43;;;19.33;;
24147;SDS011;12309;51.450;-2.624;2023-05-10T01:41:20;37.43;;;18.17;;
24147;SDS011;12309;51.450;-2.624;2023-05-10T01:43:57;36.03;;;18.97;;
24147;SDS011;12309;51.450;-2.624;2023-05-10T01:46:41;40.80;;;18.77;;
24147;SDS011;12309;51.450;-2.624;2023-05-10T01:49:08;31.50;;;18.50;;
24147;SDS011;12309;51.450;-2.624;2023-05-10T01:51:44;36.63;;;18.80;;
24147;SDS011;12309;51.450;-2.624;2023-05-10T01:54:12;36.80;;;18.43;;
24147;SDS011;12309;51.450;-2.624;2023-05-10T01:56:40;39.70;;;19.73;;
24147;SDS011;12309;51.450;-2.624;2023-05-10T01:59:10;35.40;;;18.17;;
24147;SDS011;12309;51.450;-2.624;2023-05-10T02:01:39;37.93;;;18.33;;
24147;SDS011;12309;51.450;-2.624;2023-05-10T02:04:06;41.07;;;18.33;;
24147;SDS011;12309;51.450;-2.624;2023-05-10T02:06:33;38.03;;;17.30;;
24147;SDS011;12309;51.450;-2.624;2023-05-10T02:09:00;41.77;;;18.17;;
24147;SDS011;12309;51.450;-2.624;2023-05-10T02:11:27;34.57;;;15.97;;
24147;SDS011;12309;51.450;-2.624;2023-05-10T02:13:54;29.40;;;14.30;;
24147;SDS011;12309;51.450;-2.624;2023-05-10T02:16:22;26.47;;;14.33;;
24147;SDS011;12309;51.450;-2.624;2023-05-10T02:18:56;27.83;;;14.17;;
24147;SDS011;12309;51.450;-2.624;2023-05-10T02:21:26;31.57;;;14.83;;
24147;SDS011;12309;51.450;-2.624;2023-05-10T02:23:52;30.70;;;14.67;;
24147;SDS011;12309;51.450;-2.624;2023-05-10T02:26:20;30.93;;;14.93;;
24147;SDS011;12309;51.450;-2.624;2023-05-10T02:28:48;25.93;;;14.47;;
24147;SDS011;12309;51.450;-2.624;2023-05-10T02:31:15;29.30;;;14.00;;
24147;SDS011;12309;51.450;-2.624;2023-05-10T02:33:42;26.90;;;13.33;;
24147;SDS011;12309;51.450;-2.624;2023-05-10T02:36:09;35.87;;;14.77;;
24147;SDS011;12309;51.450;-2.624;2023-05-10T02:38:37;31.43;;;13.73;;
24147;SDS011;12309;51.450;-2.624;2023-05-10T02:41:03;29.23;;;13.93;;
24147;SDS011;12309;51.450;-2.624;2023-05-10T02:43:31;32.87;;;12.87;;
24147;SDS011;12309;51.450;-2.624;2023-05-10T02:45:58;31.90;;;13.23;;
24147;SDS011;12309;51.450;-2.624;2023-05-10T02:48:23;36.63;;;13.37;;
24147;SDS011;12309;51.450;-2.624;2023-05-10T02:50:50;31.30;;;13.03;;
24147;SDS011;12309;51.450;-2.624;2023-05-10T02:53:22;31.90;;;12.53;;
24147;SDS011;12309;51.450;-2.624;2023-05-10T02:55:53;32.60;;;12.67;;
24147;SDS011;12309;51.450;-2.624;2023-05-10T02:58:21;26.50;;;12.07;;
24147;SDS011;12309;51.450;-2.624;2023-05-10T03:00:47;29.73;;;12.07;;
24147;SDS011;12309;51.450;-2.624;2023-05-10T03:03:13;28.13;;;11.53;;
24147;SDS011;12309;51.450;-2.624;2023-05-10T03:05:38;28.87;;;11.67;;
24147;SDS011;12309;51.450;-2.624;2023-05-10T03:08:04;34.83;;;12.23;;
24147;SDS011;12309;51.450;-2.624;2023-05-10T03:10:31;34.90;;;11.60;;
24147;SDS011;12309;51.450;-2.624;2023-05-10T03:16:15;39.67;;;12.77;;
24147;SDS011;12309;51.450;-2.624;2023-05-10T03:21:41;43.73;;;13.10;;
24147;SDS011;12309;51.450;-2.624;2023-05-10T03:24:12;37.90;;;12.23;;
24147;SDS011;12309;51.450;-2.624;2023-05-10T03:26:40;40.97;;;11.47;;
24147;SDS011;12309;51.450;-2.624;2023-05-10T03:29:10;33.63;;;11.47;;
24147;SDS011;12309;51.450;-2.624;2023-05-10T03:31:38;33.03;;;11.23;;
24147;SDS011;12309;51.450;-2.624;2023-05-10T03:34:04;37.80;;;11.10;;
24147;SDS011;12309;51.450;-2.624;2023-05-10T03:36:29;38.50;;;11.17;;
24147;SDS011;12309;51.450;-2.624;2023-05-10T03:38:55;34.70;;;11.43;;
24147;SDS011;12309;51.450;-2.624;2023-05-10T03:41:20;37.77;;;10.90;;
24147;SDS011;12309;51.450;-2.624;2023-05-10T03:43:46;30.10;;;10.20;;
24147;SDS011;12309;51.450;-2.624;2023-05-10T03:46:12;32.23;;;10.23;;
24147;SDS011;12309;51.450;-2.624;2023-05-10T03:48:38;30.03;;;10.73;;
24147;SDS011;12309;51.450;-2.624;2023-05-10T03:51:04;31.93;;;10.50;;
24147;SDS011;12309;51.450;-2.624;2023-05-10T03:53:29;35.10;;;10.67;;
24147;SDS011;12309;51.450;-2.624;2023-05-10T03:55:55;33.30;;;10.30;;
24147;SDS011;12309;51.450;-2.624;2023-05-10T03:58:20;40.93;;;11.40;;
24147;SDS011;12309;51.450;-2.624;2023-05-10T04:00:46;34.87;;;11.13;;
24147;SDS011;12309;51.450;-2.624;2023-05-10T04:03:12;40.87;;;11.67;;
24147;SDS011;12309;51.450;-2.624;2023-05-10T04:05:38;33.87;;;10.53;;
24147;SDS011;12309;51.450;-2.624;2023-05-10T04:08:04;39.33;;;11.47;;
24147;SDS011;12309;51.450;-2.624;2023-05-10T04:10:30;40.37;;;10.67;;
24147;SDS011;12309;51.450;-2.624;2023-05-10T04:12:56;38.47;;;11.50;;
24147;SDS011;12309;51.450;-2.624;2023-05-10T04:15:22;43.43;;;11.87;;
24147;SDS011;12309;51.450;-2.624;2023-05-10T04:17:48;37.13;;;12.00;;
24147;SDS011;12309;51.450;-2.624;2023-05-10T04:20:13;46.00;;;11.93;;
24147;SDS011;12309;51.450;-2.624;2023-05-10T04:22:39;45.57;;;12.80;;
24147;SDS011;12309;51.450;-2.624;2023-05-10T04:25:05;36.50;;;10.93;;
24147;SDS011;12309;51.450;-2.624;2023-05-10T04:27:32;39.07;;;10.90;;
24147;SDS011;12309;51.450;-2.624;2023-05-10T04:29:57;42.33;;;11.17;;
24147;SDS011;12309;51.450;-2.624;2023-05-10T04:32:23;38.33;;;9.77;;
24147;SDS011;12309;51.450;-2.624;2023-05-10T04:34:49;40.13;;;11.00;;
24147;SDS011;12309;51.450;-2.624;2023-05-10T04:37:16;37.87;;;10.63;;
24147;SDS011;12309;51.450;-2.624;2023-05-10T04:39:42;40.87;;;10.57;;
24147;SDS011;12309;51.450;-2.624;2023-05-10T04:42:08;40.60;;;11.10;;
24147;SDS011;12309;51.450;-2.624;2023-05-10T04:44:34;41.73;;;12.07;;
24147;SDS011;12309;51.450;-2.624;2023-05-10T04:47:00;48.83;;;11.03;;
24147;SDS011;12309;51.450;-2.624;2023-05-10T04:49:27;40.20;;;12.37;;
24147;SDS011;12309;51.450;-2.624;2023-05-10T04:51:53;38.90;;;10.60;;
24147;SDS011;12309;51.450;-2.624;2023-05-10T04:54:18;44.83;;;12.50;;
24147;SDS011;12309;51.450;-2.624;2023-05-10T04:56:44;43.30;;;12.13;;
24147;SDS011;12309;51.450;-2.624;2023-05-10T04:59:10;40.90;;;12.20;;
24147;SDS011;12309;51.450;-2.624;2023-05-10T05:01:35;44.47;;;12.83;;
24147;SDS011;12309;51.450;-2.624;2023-05-10T05:04:01;45.20;;;13.70;;
24147;SDS011;12309;51.450;-2.624;2023-05-10T05:06:27;45.30;;;14.00;;
24147;SDS011;12309;51.450;-2.624;2023-05-10T05:08:52;41.83;;;12.23;;
24147;SDS011;12309;51.450;-2.624;2023-05-10T05:11:18;41.37;;;13.17;;
24147;SDS011;12309;51.450;-2.624;2023-05-10T05:13:43;38.00;;;13.80;;
24147;SDS011;12309;51.450;-2.624;2023-05-10T05:16:09;37.63;;;13.20;;
24147;SDS011;12309;51.450;-2.624;2023-05-10T05:18:36;46.43;;;13.43;;
24147;SDS011;12309;51.450;-2.624;2023-05-10T05:21:01;35.97;;;12.47;;
24147;SDS011;12309;51.450;-2.624;2023-05-10T05:23:27;36.97;;;13.53;;
24147;SDS011;12309;51.450;-2.624;2023-05-10T05:25:53;41.17;;;13.73;;
24147;SDS011;12309;51.450;-2.624;2023-05-10T05:28:19;39.40;;;14.67;;
24147;SDS011;12309;51.450;-2.624;2023-05-10T05:30:45;42.67;;;14.67;;
24147;SDS011;12309;51.450;-2.624;2023-05-10T05:33:12;39.73;;;14.80;;
24147;SDS011;12309;51.450;-2.624;2023-05-10T05:35:39;39.43;;;14.27;;
24147;SDS011;12309;51.450;-2.624;2023-05-10T05:38:04;37.63;;;14.33;;
24147;SDS011;12309;51.450;-2.624;2023-05-10T05:40:31;43.67;;;13.77;;
24147;SDS011;12309;51.450;-2.624;2023-05-10T05:42:56;47.07;;;12.00;;
24147;SDS011;12309;51.450;-2.624;2023-05-10T05:45:22;34.57;;;11.70;;
24147;SDS011;12309;51.450;-2.624;2023-05-10T05:47:47;32.47;;;10.70;;
24147;SDS011;12309;51.450;-2.624;2023-05-10T05:50:13;34.03;;;10.77;;
24147;SDS011;12309;51.450;-2.624;2023-05-10T05:52:39;35.77;;;10.67;;
24147;SDS011;12309;51.450;-2.624;2023-05-10T05:55:05;37.17;;;10.70;;
24147;SDS011;12309;51.450;-2.624;2023-05-10T05:57:30;35.33;;;10.77;;
24147;SDS011;12309;51.450;-2.624;2023-05-10T05:59:56;43.07;;;10.53;;
24147;SDS011;12309;51.450;-2.624;2023-05-10T06:02:22;28.70;;;8.77;;
24147;SDS011;12309;51.450;-2.624;2023-05-10T06:04:47;28.58;;;8.23;;
24147;SDS011;12309;51.450;-2.624;2023-05-10T06:07:13;25.97;;;7.13;;
24147;SDS011;12309;51.450;-2.624;2023-05-10T06:09:39;30.50;;;7.80;;
24147;SDS011;12309;51.450;-2.624;2023-05-10T06:12:04;31.83;;;7.03;;
24147;SDS011;12309;51.450;-2.624;2023-05-10T06:14:30;30.27;;;5.80;;
24147;SDS011;12309;51.450;-2.624;2023-05-10T06:16:56;33.00;;;5.97;;
24147;SDS011;12309;51.450;-2.624;2023-05-10T06:19:21;36.00;;;5.70;;
24147;SDS011;12309;51.450;-2.624;2023-05-10T06:21:47;33.47;;;6.45;;
24147;SDS011;12309;51.450;-2.624;2023-05-10T06:24:13;27.75;;;5.97;;
24147;SDS011;12309;51.450;-2.624;2023-05-10T06:26:38;24.65;;;5.03;;
24147;SDS011;12309;51.450;-2.624;2023-05-10T06:29:04;25.73;;;4.97;;
24147;SDS011;12309;51.450;-2.624;2023-05-10T06:31:30;37.65;;;6.55;;
24147;SDS011;12309;51.450;-2.624;2023-05-10T06:33:55;29.67;;;4.78;;
24147;SDS011;12309;51.450;-2.624;2023-05-10T06:36:21;28.85;;;4.88;;
24147;SDS011;12309;51.450;-2.624;2023-05-10T06:38:46;28.88;;;5.43;;
24147;SDS011;12309;51.450;-2.624;2023-05-10T06:41:12;21.27;;;4.22;;
24147;SDS011;12309;51.450;-2.624;2023-05-10T06:43:38;19.60;;;3.88;;
24147;SDS011;12309;51.450;-2.624;2023-05-10T06:46:06;23.02;;;4.30;;
24147;SDS011;12309;51.450;-2.624;2023-05-10T06:48:32;29.73;;;4.85;;
24147;SDS011;12309;51.450;-2.624;2023-05-10T06:50:57;39.58;;;5.05;;
24147;SDS011;12309;51.450;-2.624;2023-05-10T06:53:23;23.17;;;4.05;;
24147;SDS011;12309;51.450;-2.624;2023-05-10T06:55:49;19.13;;;4.47;;
24147;SDS011;12309;51.450;-2.624;2023-05-10T06:58:15;31.10;;;4.80;;
24147;SDS011;12309;51.450;-2.624;2023-05-10T07:00:40;28.27;;;5.23;;
24147;SDS011;12309;51.450;-2.624;2023-05-10T07:03:08;24.30;;;4.13;;
24147;SDS011;12309;51.450;-2.624;2023-05-10T07:05:37;25.13;;;4.93;;
24147;SDS011;12309;51.450;-2.624;2023-05-10T07:08:02;27.98;;;5.00;;
24147;SDS011;12309;51.450;-2.624;2023-05-10T07:10:28;22.90;;;5.53;;
24147;SDS011;12309;51.450;-2.624;2023-05-10T07:12:54;25.58;;;5.38;;
24147;SDS011;12309;51.450;-2.624;2023-05-10T07:15:20;22.98;;;4.95;;
24147;SDS011;12309;51.450;-2.624;2023-05-10T07:17:46;24.85;;;5.82;;
24147;SDS011;12309;51.450;-2.624;2023-05-10T07:20:11;22.65;;;4.13;;
24147;SDS011;12309;51.450;-2.624;2023-05-10T07:22:37;19.60;;;4.88;;
24147;SDS011;12309;51.450;-2.624;2023-05-10T07:25:03;23.45;;;4.20;;
24147;SDS011;12309;51.450;-2.624;2023-05-10T07:27:29;23.48;;;4.28;;
24147;SDS011;12309;51.450;-2.624;2023-05-10T07:29:54;19.10;;;3.72;;
24147;SDS011;12309;51.450;-2.624;2023-05-10T07:32:21;19.73;;;4.38;;
24147;SDS011;12309;51.450;-2.624;2023-05-10T07:34:47;23.13;;;3.67;;
24147;SDS011;12309;51.450;-2.624;2023-05-10T07:37:12;31.15;;;4.20;;
24147;SDS011;12309;51.450;-2.624;2023-05-10T07:39:38;23.48;;;4.30;;
24147;SDS011;12309;51.450;-2.624;2023-05-10T07:42:03;23.13;;;5.03;;
24147;SDS011;12309;51.450;-2.624;2023-05-10T07:44:29;20.95;;;5.05;;
24147;SDS011;12309;51.450;-2.624;2023-05-10T07:46:55;22.08;;;4.30;;
24147;SDS011;12309;51.450;-2.624;2023-05-10T07:49:20;22.75;;;4.20;;
24147;SDS011;12309;51.450;-2.624;2023-05-10T07:51:49;26.33;;;4.95;;
24147;SDS011;12309;51.450;-2.624;2023-05-10T07:54:15;18.08;;;4.28;;
24147;SDS011;12309;51.450;-2.624;2023-05-10T07:56:40;25.83;;;4.53;;
24147;SDS011;12309;51.450;-2.624;2023-05-10T07:59:14;24.35;;;4.82;;
24147;SDS011;12309;51.450;-2.624;2023-05-10T08:01:41;22.65;;;3.92;;
24147;SDS011;12309;51.450;-2.624;2023-05-10T08:04:07;22.77;;;4.45;;
24147;SDS011;12309;51.450;-2.624;2023-05-10T08:06:33;21.45;;;4.05;;
24147;SDS011;12309;51.450;-2.624;2023-05-10T08:08:59;27.58;;;4.38;;
24147;SDS011;12309;51.450;-2.624;2023-05-10T08:11:25;20.88;;;4.50;;
24147;SDS011;12309;51.450;-2.624;2023-05-10T08:13:52;31.67;;;5.30;;
24147;SDS011;12309;51.450;-2.624;2023-05-10T08:16:18;32.43;;;6.33;;
24147;SDS011;12309;51.450;-2.624;2023-05-10T08:18:45;25.83;;;4.80;;
24147;SDS011;12309;51.450;-2.624;2023-05-10T08:21:11;34.88;;;5.75;;
24147;SDS011;12309;51.450;-2.624;2023-05-10T08:23:38;31.38;;;5.43;;
24147;SDS011;12309;51.450;-2.624;2023-05-10T08:26:04;30.13;;;4.78;;
24147;SDS011;12309;51.450;-2.624;2023-05-10T08:28:30;23.55;;;4.50;;
24147;SDS011;12309;51.450;-2.624;2023-05-10T08:30:56;27.92;;;4.78;;
24147;SDS011;12309;51.450;-2.624;2023-05-10T08:33:22;30.52;;;5.07;;
24147;SDS011;12309;51.450;-2.624;2023-05-10T08:35:47;29.02;;;4.55;;
24147;SDS011;12309;51.450;-2.624;2023-05-10T08:38:14;26.88;;;4.90;;
24147;SDS011;12309;51.450;-2.624;2023-05-10T08:40:43;18.45;;;4.50;;
24147;SDS011;12309;51.450;-2.624;2023-05-10T08:43:10;18.95;;;4.05;;
24147;SDS011;12309;51.450;-2.624;2023-05-10T08:45:38;30.60;;;5.13;;
24147;SDS011;12309;51.450;-2.624;2023-05-10T08:48:06;27.77;;;4.45;;
24147;SDS011;12309;51.450;-2.624;2023-05-10T08:50:34;28.67;;;4.72;;
24147;SDS011;12309;51.450;-2.624;2023-05-10T08:53:02;24.13;;;4.60;;
24147;SDS011;12309;51.450;-2.624;2023-05-10T08:55:31;27.58;;;4.55;;
24147;SDS011;12309;51.450;-2.624;2023-05-10T08:58:05;30.83;;;5.43;;
24147;SDS011;12309;51.450;-2.624;2023-05-10T09:00:31;22.13;;;5.53;;
24147;SDS011;12309;51.450;-2.624;2023-05-10T09:02:58;24.45;;;5.78;;
24147;SDS011;12309;51.450;-2.624;2023-05-10T09:05:24;29.10;;;6.30;;
24147;SDS011;12309;51.450;-2.624;2023-05-10T09:07:50;23.30;;;4.82;;
24147;SDS011;12309;51.450;-2.624;2023-05-10T09:10:15;28.17;;;6.20;;
24147;SDS011;12309;51.450;-2.624;2023-05-10T09:12:42;28.42;;;5.45;;
24147;SDS011;12309;51.450;-2.624;2023-05-10T09:15:10;23.58;;;5.80;;
24147;SDS011;12309;51.450;-2.624;2023-05-10T09:17:37;28.35;;;6.07;;
24147;SDS011;12309;51.450;-2.624;2023-05-10T09:20:05;23.23;;;5.10;;
24147;SDS011;12309;51.450;-2.624;2023-05-10T09:22:32;22.35;;;5.35;;
24147;SDS011;12309;51.450;-2.624;2023-05-10T09:25:11;30.77;;;5.95;;
24147;SDS011;12309;51.450;-2.624;2023-05-10T09:27:38;25.73;;;4.55;;
24147;SDS011;12309;51.450;-2.624;2023-05-10T09:30:05;29.92;;;5.18;;
24147;SDS011;12309;51.450;-2.624;2023-05-10T09:32:38;28.63;;;5.22;;
24147;SDS011;12309;51.450;-2.624;2023-05-10T09:35:16;26.08;;;5.15;;
24147;SDS011;12309;51.450;-2.624;2023-05-10T09:37:44;27.30;;;5.15;;
24147;SDS011;12309;51.450;-2.624;2023-05-10T09:40:14;26.60;;;4.55;;
24147;SDS011;12309;51.450;-2.624;2023-05-10T09:42:42;26.80;;;4.82;;
24147;SDS011;12309;51.450;-2.624;2023-05-10T09:45:15;28.80;;;4.07;;
24147;SDS011;12309;51.450;-2.624;2023-05-10T09:47:40;26.50;;;4.65;;
24147;SDS011;12309;51.450;-2.624;2023-05-10T09:50:06;30.20;;;4.80;;
24147;SDS011;12309;51.450;-2.624;2023-05-10T09:52:48;37.90;;;5.40;;
24147;SDS011;12309;51.450;-2.624;2023-05-10T09:55:37;27.05;;;4.28;;
24147;SDS011;12309;51.450;-2.624;2023-05-10T09:58:04;26.23;;;4.30;;
24147;SDS011;12309;51.450;-2.624;2023-05-10T10:00:44;16.55;;;4.32;;
24147;SDS011;12309;51.450;-2.624;2023-05-10T10:03:16;29.27;;;4.57;;
24147;SDS011;12309;51.450;-2.624;2023-05-10T10:05:45;21.73;;;3.80;;
24147;SDS011;12309;51.450;-2.624;2023-05-10T10:08:12;19.00;;;3.72;;
24147;SDS011;12309;51.450;-2.624;2023-05-10T10:10:39;23.27;;;3.63;;
24147;SDS011;12309;51.450;-2.624;2023-05-10T10:13:05;19.17;;;3.60;;
24147;SDS011;12309;51.450;-2.624;2023-05-10T10:15:32;20.67;;;3.75;;
24147;SDS011;12309;51.450;-2.624;2023-05-10T10:18:01;23.08;;;3.35;;
24147;SDS011;12309;51.450;-2.624;2023-05-10T10:20:29;16.83;;;2.88;;
24147;SDS011;12309;51.450;-2.624;2023-05-10T10:22:54;13.57;;;2.92;;
24147;SDS011;12309;51.450;-2.624;2023-05-10T10:25:21;16.25;;;2.63;;
24147;SDS011;12309;51.450;-2.624;2023-05-10T10:35:52;17.83;;;3.08;;
24147;SDS011;12309;51.450;-2.624;2023-05-10T10:38:19;29.48;;;4.53;;
24147;SDS011;12309;51.450;-2.624;2023-05-10T10:40:46;25.60;;;4.15;;
24147;SDS011;12309;51.450;-2.624;2023-05-10T10:43:25;31.70;;;4.20;;
24147;SDS011;12309;51.450;-2.624;2023-05-10T10:46:09;23.73;;;3.90;;
24147;SDS011;12309;51.450;-2.624;2023-05-10T10:51:39;20.83;;;3.70;;
24147;SDS011;12309;51.450;-2.624;2023-05-10T10:54:09;24.08;;;3.85;;
24147;SDS011;12309;51.450;-2.624;2023-05-10T10:56:35;18.73;;;3.65;;
24147;SDS011;12309;51.450;-2.624;2023-05-10T10:59:00;19.85;;;3.40;;
24147;SDS011;12309;51.450;-2.624;2023-05-10T11:01:26;19.00;;;3.85;;
24147;SDS011;12309;51.450;-2.624;2023-05-10T11:06:33;25.60;;;4.60;;
24147;SDS011;12309;51.450;-2.624;2023-05-10T11:09:04;22.02;;;3.63;;
24147;SDS011;12309;51.450;-2.624;2023-05-10T11:11:34;16.67;;;3.10;;
24147;SDS011;12309;51.450;-2.624;2023-05-10T11:14:04;19.25;;;3.55;;
24147;SDS011;12309;51.450;-2.624;2023-05-10T11:16:43;17.90;;;3.00;;
24147;SDS011;12309;51.450;-2.624;2023-05-10T11:19:13;19.20;;;3.50;;
24147;SDS011;12309;51.450;-2.624;2023-05-10T11:21:44;24.42;;;4.45;;
24147;SDS011;12309;51.450;-2.624;2023-05-10T11:24:15;22.95;;;4.00;;
24147;SDS011;12309;51.450;-2.624;2023-05-10T11:26:42;21.52;;;3.47;;
24147;SDS011;12309;51.450;-2.624;2023-05-10T11:29:08;15.93;;;3.72;;
24147;SDS011;12309;51.450;-2.624;2023-05-10T11:31:34;19.23;;;2.78;;
24147;SDS011;12309;51.450;-2.624;2023-05-10T11:34:00;19.33;;;2.65;;
24147;SDS011;12309;51.450;-2.624;2023-05-10T11:36:31;16.88;;;2.95;;
24147;SDS011;12309;51.450;-2.624;2023-05-10T11:39:00;18.30;;;3.13;;
24147;SDS011;12309;51.450;-2.624;2023-05-10T11:41:27;15.13;;;2.20;;
24147;SDS011;12309;51.450;-2.624;2023-05-10T11:43:53;15.23;;;3.08;;
24147;SDS011;12309;51.450;-2.624;2023-05-10T11:46:20;16.33;;;2.95;;
24147;SDS011;12309;51.450;-2.624;2023-05-10T11:48:51;11.77;;;2.72;;
24147;SDS011;12309;51.450;-2.624;2023-05-10T11:51:21;21.15;;;3.40;;
24147;SDS011;12309;51.450;-2.624;2023-05-10T11:53:48;16.02;;;2.80;;
24147;SDS011;12309;51.450;-2.624;2023-05-10T11:56:15;20.77;;;3.08;;
24147;SDS011;12309;51.450;-2.624;2023-05-10T11:58:41;16.40;;;3.15;;
24147;SDS011;12309;51.450;-2.624;2023-05-10T12:01:07;15.35;;;2.95;;
24147;SDS011;12309;51.450;-2.624;2023-05-10T12:03:34;16.77;;;2.88;;
24147;SDS011;12309;51.450;-2.624;2023-05-10T12:06:00;13.75;;;2.60;;
24147;SDS011;12309;51.450;-2.624;2023-05-10T12:08:28;18.67;;;3.50;;
24147;SDS011;12309;51.450;-2.624;2023-05-10T12:11:05;15.82;;;3.08;;
24147;SDS011;12309;51.450;-2.624;2023-05-10T12:13:32;17.25;;;3.72;;
24147;SDS011;12309;51.450;-2.624;2023-05-10T12:16:12;14.25;;;2.75;;
24147;SDS011;12309;51.450;-2.624;2023-05-10T12:18:41;13.65;;;2.30;;
24147;SDS011;12309;51.450;-2.624;2023-05-10T12:21:08;8.82;;;2.40;;
24147;SDS011;12309;51.450;-2.624;2023-05-10T12:23:35;13.73;;;2.40;;
24147;SDS011;12309;51.450;-2.624;2023-05-10T12:26:02;13.70;;;2.97;;
24147;SDS011;12309;51.450;-2.624;2023-05-10T12:28:31;14.93;;;2.13;;
24147;SDS011;12309;51.450;-2.624;2023-05-10T12:30:58;11.38;;;2.28;;
24147;SDS011;12309;51.450;-2.624;2023-05-10T12:33:25;14.10;;;3.22;;
24147;SDS011;12309;51.450;-2.624;2023-05-10T12:35:52;14.38;;;3.22;;
24147;SDS011;12309;51.450;-2.624;2023-05-10T12:38:37;18.35;;;2.72;;
24147;SDS011;12309;51.450;-2.624;2023-05-10T12:41:14;11.18;;;2.42;;
24147;SDS011;12309;51.450;-2.624;2023-05-10T12:43:41;10.82;;;2.40;;
24147;SDS011;12309;51.450;-2.624;2023-05-10T12:46:07;7.82;;;1.45;;
24147;SDS011;12309;51.450;-2.624;2023-05-10T12:48:34;9.13;;;2.10;;
24147;SDS011;12309;51.450;-2.624;2023-05-10T12:51:01;7.32;;;1.80;;
24147;SDS011;12309;51.450;-2.624;2023-05-10T12:53:27;9.85;;;1.95;;
24147;SDS011;12309;51.450;-2.624;2023-05-10T12:55:53;12.80;;;2.00;;
24147;SDS011;12309;51.450;-2.624;2023-05-10T12:58:19;11.25;;;2.35;;
24147;SDS011;12309;51.450;-2.624;2023-05-10T13:00:45;13.55;;;2.33;;
24147;SDS011;12309;51.450;-2.624;2023-05-10T13:03:11;14.43;;;2.58;;
24147;SDS011;12309;51.450;-2.624;2023-05-10T13:05:37;14.75;;;2.05;;
24147;SDS011;12309;51.450;-2.624;2023-05-10T13:08:02;11.93;;;2.20;;
24147;SDS011;12309;51.450;-2.624;2023-05-10T13:10:29;14.88;;;2.70;;
24147;SDS011;12309;51.450;-2.624;2023-05-10T13:12:56;8.70;;;1.77;;
24147;SDS011;12309;51.450;-2.624;2023-05-10T13:15:22;14.60;;;2.20;;
24147;SDS011;12309;51.450;-2.624;2023-05-10T13:17:48;11.60;;;2.22;;
24147;SDS011;12309;51.450;-2.624;2023-05-10T13:20:14;12.98;;;2.20;;
24147;SDS011;12309;51.450;-2.624;2023-05-10T13:22:40;16.35;;;2.58;;
24147;SDS011;12309;51.450;-2.624;2023-05-10T13:25:07;16.33;;;2.13;;
24147;SDS011;12309;51.450;-2.624;2023-05-10T13:27:33;10.25;;;2.20;;
24147;SDS011;12309;51.450;-2.624;2023-05-10T13:29:58;16.40;;;2.40;;
24147;SDS011;12309;51.450;-2.624;2023-05-10T13:32:24;9.00;;;1.52;;
24147;SDS011;12309;51.450;-2.624;2023-05-10T13:34:50;7.40;;;1.70;;
24147;SDS011;12309;51.450;-2.624;2023-05-10T13:37:16;10.55;;;1.45;;
24147;SDS011;12309;51.450;-2.624;2023-05-10T13:39:42;8.82;;;1.40;;
24147;SDS011;12309;51.450;-2.624;2023-05-10T13:42:07;8.30;;;1.20;;
24147;SDS011;12309;51.450;-2.624;2023-05-10T13:44:33;4.30;;;1.17;;
24147;SDS011;12309;51.450;-2.624;2023-05-10T13:46:59;8.25;;;1.67;;
24147;SDS011;12309;51.450;-2.624;2023-05-10T13:49:24;5.93;;;1.40;;
24147;SDS011;12309;51.450;-2.624;2023-05-10T13:51:50;4.88;;;1.10;;
24147;SDS011;12309;51.450;-2.624;2023-05-10T13:54:16;7.97;;;1.17;;
24147;SDS011;12309;51.450;-2.624;2023-05-10T13:56:44;4.95;;;1.17;;
24147;SDS011;12309;51.450;-2.624;2023-05-10T13:59:12;10.57;;;1.40;;
24147;SDS011;12309;51.450;-2.624;2023-05-10T14:01:38;4.30;;;1.10;;
24147;SDS011;12309;51.450;-2.624;2023-05-10T14:04:04;4.97;;;1.30;;
24147;SDS011;12309;51.450;-2.624;2023-05-10T14:06:31;3.75;;;1.20;;
24147;SDS011;12309;51.450;-2.624;2023-05-10T14:08:56;9.70;;;1.48;;
24147;SDS011;12309;51.450;-2.624;2023-05-10T14:11:22;6.30;;;1.23;;
24147;SDS011;12309;51.450;-2.624;2023-05-10T14:13:48;6.03;;;1.70;;
24147;SDS011;12309;51.450;-2.624;2023-05-10T14:16:14;6.53;;;1.13;;
24147;SDS011;12309;51.450;-2.624;2023-05-10T14:18:39;5.43;;;1.10;;
24147;SDS011;12309;51.450;-2.624;2023-05-10T14:21:05;6.60;;;1.40;;
24147;SDS011;12309;51.450;-2.624;2023-05-10T14:23:31;7.80;;;1.10;;
24147;SDS011;12309;51.450;-2.624;2023-05-10T14:25:57;7.35;;;1.55;;
24147;SDS011;12309;51.450;-2.624;2023-05-10T14:28:22;9.63;;;1.63;;
24147;SDS011;12309;51.450;-2.624;2023-05-10T14:30:49;6.72;;;1.77;;
24147;SDS011;12309;51.450;-2.624;2023-05-10T14:33:16;7.45;;;1.70;;
24147;SDS011;12309;51.450;-2.624;2023-05-10T14:35:42;8.68;;;1.60;;
24147;SDS011;12309;51.450;-2.624;2023-05-10T14:38:07;10.10;;;2.10;;
24147;SDS011;12309;51.450;-2.624;2023-05-10T14:40:33;6.90;;;1.60;;
24147;SDS011;12309;51.450;-2.624;2023-05-10T14:42:59;7.20;;;1.20;;
24147;SDS011;12309;51.450;-2.624;2023-05-10T14:45:25;5.85;;;1.27;;
24147;SDS011;12309;51.450;-2.624;2023-05-10T14:47:51;11.40;;;1.50;;
24147;SDS011;12309;51.450;-2.624;2023-05-10T14:50:17;7.05;;;1.58;;